Palatine, IL (60074)

4:53 AM CDT on July 05, 2015 (GMT -0500)
Staples Corner Palatine IL | | Change Station
CLOSE
Current Station
Personal Weather Station
Location: Palatine, IL
Elevation: 748 ft
Nearby Weather Stations

Elev 748 ft 42.15 °N, 88.02 °W | Updated 1 minute ago

Clear
Clear
59.5 °F
Feels Like 59.5 °F
N
0.0
Wind Variable Wind from ESE
Gusts 0.0 mph

Today
High -- | Low -- °F
--% Chance of Precip.
Yesterday
High -- | Low -- °F
Precip. -- in
5:22 AM 8:31 PM
Waning Gibbous, 86% visible
Pressure 30.07 in
Visibility 1.5 miles
Clouds Clear
Dew Point 48 °F
Humidity 65%
Rainfall 0.00 in
Snow Depth Not available.
UV 0.0 out of 12
Pollen 4.20 out of 12
Air Quality Not available.
Flu Activity Not available.
METAR KPWK 050852Z AUTO 00000KT 1 1/2SM HZ CLR 17/14 A3008 RMK AO2 SLP181 T01670139 51009

More Conditions Fewer Conditions

Pressure 30.07 in
Visibility 1.5 miles
Clouds Clear
Dew Point 48 °F
Humidity 65%
Rainfall 0.00 in
Snow Depth Not available.
UV 0.0 out of 12
Pollen 4.20 out of 12
Air Quality Not available.
Flu Activity Not available.
METAR KPWK 050852Z AUTO 00000KT 1 1/2SM HZ CLR 17/14 A3008 RMK AO2 SLP181 T01670139 51009

More Conditions Fewer Conditions

10-Day Weather Forecast

×

Almanac

Astronomy

Jul. 05, 2015 Rise Set
Actual Time
Civil Twilight
Nautical Twilight
Astronomical Twilight
Moon
Length of Visible Light
Length of Day
Tomorrow will be .
, % of the Moon is Illuminated

Today's Extremes

State Highs State Lows

Community

WunderPhotos

Upload Photos

1,835,218 photos uploaded!

WunderBlogs® & News

Nearby

Air Quality

  Air Quality AQ Index Pollutant
Not available.

Snow Depth

Station Depth Elevation

Earthquake Activity

City Distance Mag. Time & Date
Minimum magnitude displayed is 2.5.

Coastal Water Temperatures

Place Temperature

Stations

Nearby Weather Stations

Station Location Temp. Windchill Dew Point Humidity Wind Precip. Elev Updated Type